createdAt,value
2019-03-18T00:00:04.459Z,4.03
2019-03-18T00:02:32.865Z,4.00
2019-03-18T00:05:01.355Z,4.27
2019-03-18T00:07:29.840Z,4.10
2019-03-18T00:09:58.223Z,5.13
2019-03-18T00:12:26.644Z,4.50
2019-03-18T00:15:01.298Z,5.50
2019-03-18T00:17:25.218Z,5.63
2019-03-18T00:19:53.674Z,4.30
2019-03-18T00:22:22.099Z,5.37
2019-03-18T00:24:50.492Z,5.73
2019-03-18T00:27:18.947Z,5.43
2019-03-18T00:29:47.353Z,6.07
2019-03-18T00:32:15.736Z,5.93
2019-03-18T00:34:44.191Z,5.67
2019-03-18T00:37:12.603Z,5.93
2019-03-18T00:39:40.994Z,5.60
2019-03-18T00:42:09.413Z,5.63
2019-03-18T00:44:37.807Z,5.93
2019-03-18T00:47:06.304Z,7.57
2019-03-18T00:49:34.767Z,7.60
2019-03-18T00:52:03.148Z,9.20
2019-03-18T00:54:30.662Z,9.03
2019-03-18T00:56:59.070Z,10.37
2019-03-18T00:59:27.458Z,11.00
2019-03-18T01:01:55.855Z,10.70
2019-03-18T01:04:24.259Z,11.83
2019-03-18T01:06:52.660Z,11.37
2019-03-18T01:09:21.054Z,13.00
2019-03-18T01:11:49.457Z,11.27
2019-03-18T01:14:17.846Z,11.57
2019-03-18T01:16:46.258Z,13.70
2019-03-18T01:19:14.648Z,13.23
2019-03-18T01:21:43.046Z,14.93
2019-03-18T01:24:11.460Z,13.97
2019-03-18T01:26:39.898Z,12.07
2019-03-18T01:29:08.291Z,12.47
2019-03-18T01:31:36.724Z,11.90
2019-03-18T01:34:05.140Z,13.93
2019-03-18T01:36:33.564Z,12.23
2019-03-18T01:39:02.041Z,13.17
2019-03-18T01:41:30.478Z,12.87
2019-03-18T01:43:58.873Z,13.40
2019-03-18T01:46:27.365Z,13.33
2019-03-18T01:48:55.770Z,12.33
2019-03-18T01:51:24.215Z,13.60
2019-03-18T01:53:52.587Z,12.80
2019-03-18T01:56:21.015Z,13.27
2019-03-18T01:58:49.424Z,13.70
2019-03-18T02:01:17.825Z,14.23
2019-03-18T02:03:46.231Z,13.30
2019-03-18T02:06:14.625Z,14.47
2019-03-18T02:08:43.059Z,13.87
2019-03-18T02:11:11.445Z,13.63
2019-03-18T02:13:39.851Z,14.23
2019-03-18T02:16:08.258Z,15.63
2019-03-18T02:18:36.801Z,13.47
2019-03-18T02:21:05.249Z,13.87
2019-03-18T02:23:33.657Z,13.63
2019-03-18T02:26:02.046Z,13.10
2019-03-18T02:28:30.458Z,14.13
2019-03-18T02:30:58.870Z,14.33
2019-03-18T02:33:27.267Z,13.50
2019-03-18T02:35:55.669Z,13.47
2019-03-18T02:38:24.078Z,13.67
2019-03-18T02:40:52.515Z,14.20
2019-03-18T02:43:20.923Z,14.27
2019-03-18T02:45:49.332Z,13.23
2019-03-18T02:48:17.741Z,13.53
2019-03-18T02:50:46.138Z,13.40
2019-03-18T02:53:14.538Z,12.50
2019-03-18T02:55:43.015Z,14.97
2019-03-18T02:58:11.459Z,13.70
2019-03-18T03:00:39.923Z,12.63
2019-03-18T03:03:08.364Z,13.00
2019-03-18T03:05:36.766Z,13.90
2019-03-18T03:08:05.193Z,14.13
2019-03-18T03:10:33.588Z,13.97
2019-03-18T03:13:02.193Z,13.30
2019-03-18T03:15:30.593Z,12.77
2019-03-18T03:17:59.024Z,11.93
2019-03-18T03:20:27.456Z,12.63
2019-03-18T03:22:55.977Z,12.27
2019-03-18T03:25:25.042Z,13.70
2019-03-18T03:27:53.901Z,13.53
2019-03-18T03:30:22.304Z,12.40
2019-03-18T03:32:50.742Z,12.37
2019-03-18T03:35:19.124Z,11.53
2019-03-18T03:37:47.569Z,11.90
2019-03-18T03:40:15.963Z,11.50
2019-03-18T03:42:44.655Z,12.40
2019-03-18T03:45:14.159Z,11.77
2019-03-18T03:47:42.617Z,12.93
2019-03-18T03:50:12.746Z,11.73
2019-03-18T03:52:41.151Z,11.23
2019-03-18T03:55:13.502Z,11.03
2019-03-18T03:57:41.894Z,11.70
2019-03-18T04:00:14.895Z,11.63
2019-03-18T04:02:43.347Z,10.90
2019-03-18T04:05:11.739Z,11.33
2019-03-18T04:07:40.169Z,11.13
2019-03-18T04:10:10.400Z,10.40
2019-03-18T04:12:38.796Z,10.03
2019-03-18T04:15:09.814Z,10.43
2019-03-18T04:17:38.210Z,10.47
2019-03-18T04:20:14.537Z,11.37
2019-03-18T04:22:42.943Z,11.20
2019-03-18T04:25:11.338Z,10.83
2019-03-18T04:27:39.767Z,10.03
2019-03-18T04:30:10.946Z,10.23
2019-03-18T04:32:39.369Z,10.27
2019-03-18T04:35:07.749Z,9.77
2019-03-18T04:37:36.229Z,10.17
2019-03-18T04:40:05.367Z,10.13
2019-03-18T04:42:33.790Z,9.83
2019-03-18T04:45:02.190Z,9.50
2019-03-18T04:47:30.635Z,9.70
2019-03-18T04:49:59.091Z,9.20
2019-03-18T04:52:27.591Z,9.23
2019-03-18T04:54:55.969Z,9.10
2019-03-18T04:57:24.396Z,9.00
2019-03-18T04:59:52.797Z,9.43
2019-03-18T05:02:21.182Z,9.40
2019-03-18T05:04:49.573Z,9.43
2019-03-18T05:07:18.024Z,9.23
2019-03-18T05:09:46.455Z,8.87
2019-03-18T05:12:14.836Z,8.30
2019-03-18T05:14:43.229Z,8.57
2019-03-18T05:17:11.623Z,8.00
2019-03-18T05:19:40.019Z,7.87
2019-03-18T05:22:08.413Z,8.50
2019-03-18T05:24:36.801Z,8.07
2019-03-18T05:27:05.192Z,8.10
2019-03-18T05:29:33.585Z,8.43
2019-03-18T05:32:04.909Z,7.87
2019-03-18T05:34:32.104Z,7.73
2019-03-18T05:37:00.625Z,6.83
2019-03-18T05:39:29.146Z,6.73
2019-03-18T05:41:57.533Z,7.03
2019-03-18T05:44:25.970Z,6.33
2019-03-18T05:46:54.352Z,6.97
2019-03-18T05:49:22.810Z,6.63
2019-03-18T05:51:51.195Z,6.73
2019-03-18T05:54:19.609Z,6.20
2019-03-18T05:56:48.070Z,6.30
2019-03-18T05:59:16.495Z,5.83
2019-03-18T06:01:44.878Z,5.93
2019-03-18T06:04:13.303Z,5.70
2019-03-18T06:06:41.695Z,6.43
2019-03-18T06:09:10.120Z,5.90
2019-03-18T06:11:38.506Z,6.30
2019-03-18T06:14:07.014Z,6.03
2019-03-18T06:16:35.403Z,6.00
2019-03-18T06:19:03.841Z,5.77
2019-03-18T06:21:32.243Z,5.83
2019-03-18T06:24:00.653Z,7.07
2019-03-18T06:26:29.261Z,5.37
2019-03-18T06:28:57.747Z,5.57
2019-03-18T06:31:26.095Z,5.07
2019-03-18T06:33:54.532Z,5.27
2019-03-18T06:36:22.945Z,5.00
2019-03-18T06:38:51.357Z,5.87
2019-03-18T06:41:19.733Z,5.50
2019-03-18T06:43:48.121Z,5.30
2019-03-18T06:46:16.508Z,4.10
2019-03-18T06:48:44.905Z,5.23
2019-03-18T06:51:13.293Z,4.90
2019-03-18T06:53:41.731Z,4.37
2019-03-18T06:56:10.110Z,4.37
2019-03-18T06:58:38.494Z,6.30
2019-03-18T07:01:06.906Z,4.60
2019-03-18T07:03:35.344Z,4.70
2019-03-18T07:06:03.738Z,4.40
2019-03-18T07:08:32.149Z,4.97
2019-03-18T07:11:00.549Z,4.17
2019-03-18T07:13:28.978Z,4.13
2019-03-18T07:16:00.015Z,5.47
2019-03-18T07:18:27.664Z,4.23
2019-03-18T07:20:56.046Z,5.00
2019-03-18T07:23:24.439Z,4.43
2019-03-18T07:25:52.835Z,3.97
2019-03-18T07:28:21.226Z,3.57
2019-03-18T07:30:49.618Z,3.70
2019-03-18T07:33:18.021Z,3.43
2019-03-18T07:35:46.420Z,4.10
2019-03-18T07:38:14.803Z,3.87
2019-03-18T07:40:43.210Z,4.30
2019-03-18T07:43:11.601Z,3.57
2019-03-18T07:45:39.988Z,3.47
2019-03-18T07:48:08.379Z,4.77
2019-03-18T07:50:36.764Z,3.50
2019-03-18T07:53:05.159Z,4.53
2019-03-18T07:55:33.550Z,3.43
2019-03-18T07:58:01.989Z,3.80
2019-03-18T08:00:30.384Z,3.23
2019-03-18T08:02:58.930Z,3.23
2019-03-18T08:05:27.317Z,3.47
2019-03-18T08:07:55.705Z,3.57
2019-03-18T08:10:24.097Z,3.80
2019-03-18T08:12:52.490Z,3.30
2019-03-18T08:15:20.886Z,3.07
2019-03-18T08:17:49.272Z,3.47
2019-03-18T08:20:17.668Z,3.37
2019-03-18T08:22:46.058Z,4.07
2019-03-18T08:25:14.455Z,3.80
2019-03-18T08:27:42.843Z,3.10
2019-03-18T08:30:13.083Z,4.17
2019-03-18T08:32:41.474Z,5.20
2019-03-18T08:35:09.901Z,3.03
2019-03-18T08:37:38.290Z,2.60
2019-03-18T08:40:09.938Z,2.77
2019-03-18T08:42:38.351Z,2.50
2019-03-18T08:45:11.642Z,3.37
2019-03-18T08:47:40.031Z,2.70
2019-03-18T08:50:12.276Z,2.40
2019-03-18T08:52:40.089Z,2.70
2019-03-18T08:55:09.942Z,2.63
2019-03-18T08:57:38.327Z,2.47
2019-03-18T09:00:12.132Z,2.67
2019-03-18T09:02:41.031Z,2.60
2019-03-18T09:05:10.269Z,2.37
2019-03-18T09:07:38.652Z,2.87
2019-03-18T09:10:14.260Z,2.40
2019-03-18T09:12:42.649Z,2.53
2019-03-18T09:15:11.709Z,2.70
2019-03-18T09:17:40.098Z,2.40
2019-03-18T09:20:16.124Z,2.70
2019-03-18T09:22:44.509Z,3.43
2019-03-18T09:25:13.066Z,3.63
2019-03-18T09:27:41.510Z,2.30
2019-03-18T09:30:15.543Z,2.47
2019-03-18T09:32:43.931Z,2.30
2019-03-18T09:35:12.317Z,3.57
2019-03-18T09:37:40.720Z,2.10
2019-03-18T09:40:11.911Z,2.67
2019-03-18T09:42:40.321Z,2.47
2019-03-18T09:45:11.701Z,2.20
2019-03-18T09:47:40.094Z,2.30
2019-03-18T09:50:09.839Z,2.37
2019-03-18T09:52:38.230Z,2.73
2019-03-18T09:55:07.419Z,2.50
2019-03-18T09:57:35.819Z,2.43
2019-03-18T10:00:06.750Z,3.73
2019-03-18T10:02:35.142Z,2.93
2019-03-18T10:05:04.478Z,2.03
2019-03-18T10:07:32.875Z,1.80
2019-03-18T10:10:01.291Z,2.20
2019-03-18T10:12:29.672Z,2.53
2019-03-18T10:14:58.096Z,1.90
2019-03-18T10:17:26.482Z,1.97
2019-03-18T10:19:54.892Z,2.00
2019-03-18T10:22:23.274Z,2.00
2019-03-18T10:24:53.325Z,2.37
2019-03-18T10:27:21.713Z,1.90
2019-03-18T10:29:50.139Z,1.80
2019-03-18T10:32:18.535Z,1.70
2019-03-18T10:34:46.947Z,2.03
2019-03-18T10:37:15.331Z,2.00
2019-03-18T10:39:43.799Z,1.80
2019-03-18T10:42:12.187Z,1.90
2019-03-18T10:44:40.577Z,1.33
2019-03-18T10:47:08.966Z,1.87
2019-03-18T10:49:45.940Z,1.90
2019-03-18T10:52:07.511Z,1.70
2019-03-18T10:54:35.958Z,1.93
2019-03-18T10:57:04.344Z,1.47
2019-03-18T10:59:32.853Z,1.90
2019-03-18T11:02:01.429Z,1.93
2019-03-18T11:04:29.825Z,1.77
2019-03-18T11:06:58.217Z,1.60
2019-03-18T11:09:26.604Z,2.63
2019-03-18T11:11:55.012Z,2.53
2019-03-18T11:14:23.483Z,1.67
2019-03-18T11:16:52.589Z,1.67
2019-03-18T11:19:21.083Z,1.60
2019-03-18T11:21:49.576Z,2.00
2019-03-18T11:24:17.964Z,1.60
2019-03-18T11:26:46.380Z,1.60
2019-03-18T11:29:14.766Z,1.50
2019-03-18T11:31:43.202Z,1.93
2019-03-18T11:34:11.589Z,1.50
2019-03-18T11:36:40.013Z,1.33
2019-03-18T11:39:08.505Z,1.77
2019-03-18T11:41:38.371Z,2.00
2019-03-18T11:44:06.996Z,1.70
2019-03-18T11:46:35.429Z,1.53
2019-03-18T11:49:03.898Z,2.73
2019-03-18T11:51:32.381Z,1.50
2019-03-18T11:54:00.775Z,2.57
2019-03-18T11:56:29.182Z,1.43
2019-03-18T11:58:57.685Z,3.00
2019-03-18T12:01:26.079Z,1.77
2019-03-18T12:03:54.467Z,1.40
2019-03-18T12:06:22.854Z,1.90
2019-03-18T12:08:51.241Z,2.40
2019-03-18T12:11:19.631Z,3.50
2019-03-18T12:13:48.058Z,1.50
2019-03-18T12:16:16.455Z,1.60
2019-03-18T12:18:44.844Z,1.57
2019-03-18T12:21:15.912Z,1.90
2019-03-18T12:23:43.349Z,1.37
2019-03-18T12:26:11.738Z,1.87
2019-03-18T12:28:40.135Z,1.63
2019-03-18T12:31:08.526Z,1.30
2019-03-18T12:33:36.932Z,1.63
2019-03-18T12:36:05.321Z,1.50
2019-03-18T12:38:33.711Z,2.50
2019-03-18T12:41:02.193Z,3.10
2019-03-18T12:43:30.582Z,1.73
2019-03-18T12:45:58.999Z,1.50
2019-03-18T12:48:27.390Z,1.83
2019-03-18T12:50:56.806Z,2.30
2019-03-18T12:53:25.295Z,2.73
2019-03-18T12:55:53.718Z,2.20
2019-03-18T12:58:22.125Z,2.00
2019-03-18T13:00:50.566Z,2.07
2019-03-18T13:03:18.955Z,2.50
2019-03-18T13:05:47.344Z,2.63
2019-03-18T13:08:15.749Z,2.63
2019-03-18T13:10:44.143Z,2.37
2019-03-18T13:13:12.606Z,3.27
2019-03-18T13:15:40.995Z,2.37
2019-03-18T13:18:09.383Z,2.53
2019-03-18T13:20:37.827Z,2.77
2019-03-18T13:23:06.252Z,2.53
2019-03-18T13:25:34.663Z,2.40
2019-03-18T13:28:03.059Z,2.73
2019-03-18T13:30:31.574Z,2.90
2019-03-18T13:33:00.035Z,2.70
2019-03-18T13:35:28.426Z,3.17
2019-03-18T13:37:56.829Z,3.10
2019-03-18T13:40:25.979Z,3.00
2019-03-18T13:42:54.372Z,2.83
2019-03-18T13:45:25.989Z,2.90
2019-03-18T13:47:54.400Z,3.17
2019-03-18T13:50:23.057Z,2.77
2019-03-18T13:52:51.531Z,3.00
2019-03-18T13:55:19.925Z,4.47
2019-03-18T13:57:48.307Z,3.07
2019-03-18T14:00:18.704Z,4.93
2019-03-18T14:02:47.086Z,5.40
2019-03-18T14:05:15.560Z,5.40
2019-03-18T14:07:44.078Z,4.90
2019-03-18T14:10:16.501Z,6.03
2019-03-18T14:12:45.016Z,5.43
2019-03-18T14:15:15.246Z,4.90
2019-03-18T14:17:43.812Z,4.80
2019-03-18T14:20:17.172Z,5.93
2019-03-18T14:22:45.578Z,5.80
2019-03-18T14:25:13.980Z,5.70
2019-03-18T14:27:42.389Z,6.10
2019-03-18T14:30:13.693Z,5.87
2019-03-18T14:32:42.200Z,5.10
2019-03-18T14:35:10.652Z,5.70
2019-03-18T14:37:39.140Z,5.30
2019-03-18T14:40:10.528Z,5.90
2019-03-18T14:42:38.936Z,5.57
2019-03-18T14:45:10.629Z,9.93
2019-03-18T14:47:39.085Z,5.10
2019-03-18T14:50:09.910Z,5.20
2019-03-18T14:52:38.360Z,6.13
2019-03-18T14:55:10.284Z,5.53
2019-03-18T14:57:38.865Z,6.13
2019-03-18T15:00:24.529Z,5.50
2019-03-18T15:02:52.984Z,6.17
2019-03-18T15:05:21.397Z,5.97
2019-03-18T15:07:49.785Z,5.63
2019-03-18T15:10:31.984Z,6.87
2019-03-18T15:13:00.393Z,5.30
2019-03-18T15:15:28.766Z,5.63
2019-03-18T15:17:57.165Z,6.80
2019-03-18T15:20:27.400Z,5.90
2019-03-18T15:22:55.791Z,5.47
2019-03-18T15:25:26.586Z,6.27
2019-03-18T15:27:54.979Z,5.80
2019-03-18T15:30:23.370Z,6.03
2019-03-18T15:32:51.759Z,5.37
2019-03-18T15:35:20.149Z,5.83
2019-03-18T15:37:48.559Z,4.80
2019-03-18T15:40:24.542Z,5.43
2019-03-18T15:42:52.977Z,5.43
2019-03-18T15:45:24.440Z,4.40
2019-03-18T15:47:52.877Z,4.97
2019-03-18T15:50:26.241Z,4.97
2019-03-18T15:52:55.781Z,4.97
2019-03-18T15:55:24.697Z,5.50
2019-03-18T15:57:53.210Z,5.23
2019-03-18T16:00:28.817Z,5.63
2019-03-18T16:02:57.259Z,4.77
2019-03-18T16:05:25.661Z,5.87
2019-03-18T16:07:54.163Z,5.37
2019-03-18T16:10:22.549Z,5.00
2019-03-18T16:12:50.968Z,4.60
2019-03-18T16:15:19.371Z,4.23
2019-03-18T16:17:47.788Z,5.03
2019-03-18T16:20:18.379Z,6.20
2019-03-18T16:22:46.827Z,6.50
2019-03-18T16:25:15.189Z,6.23
2019-03-18T16:27:43.680Z,6.73
2019-03-18T16:30:16.197Z,8.87
2019-03-18T16:32:44.569Z,7.67
2019-03-18T16:35:15.824Z,10.03
2019-03-18T16:37:44.330Z,11.70
2019-03-18T16:40:23.252Z,10.67
2019-03-18T16:42:51.859Z,10.63
2019-03-18T16:45:20.589Z,10.60
2019-03-18T16:47:48.993Z,13.27
2019-03-18T16:50:19.969Z,9.63
2019-03-18T16:52:48.357Z,12.27
2019-03-18T16:55:17.851Z,10.70
2019-03-18T16:57:46.305Z,14.23
2019-03-18T17:00:19.558Z,12.87
2019-03-18T17:02:47.998Z,9.90
2019-03-18T17:05:16.470Z,11.40
2019-03-18T17:07:44.909Z,13.50
2019-03-18T17:10:14.499Z,12.93
2019-03-18T17:12:42.986Z,12.53
2019-03-18T17:15:12.915Z,12.57
2019-03-18T17:17:41.341Z,12.27
2019-03-18T17:20:14.604Z,10.30
2019-03-18T17:22:49.516Z,11.43
2019-03-18T17:25:30.443Z,14.07
2019-03-18T17:27:58.861Z,11.73
2019-03-18T17:30:27.263Z,12.33
2019-03-18T17:32:55.783Z,11.90
2019-03-18T17:35:24.178Z,12.83
2019-03-18T17:37:52.633Z,12.50
2019-03-18T17:40:21.498Z,12.30
2019-03-18T17:42:49.927Z,12.60
2019-03-18T17:45:18.966Z,13.17
2019-03-18T17:47:47.394Z,12.67
2019-03-18T17:50:21.645Z,13.43
2019-03-18T17:53:01.604Z,11.53
2019-03-18T17:55:20.189Z,14.73
2019-03-18T17:57:48.782Z,13.80
2019-03-18T18:00:25.228Z,13.93
2019-03-18T18:02:53.661Z,14.07
2019-03-18T18:05:22.068Z,13.53
2019-03-18T18:07:50.506Z,12.83
2019-03-18T18:10:18.903Z,16.00
2019-03-18T18:12:47.307Z,15.23
2019-03-18T18:15:15.708Z,17.60
2019-03-18T18:17:44.175Z,17.03
2019-03-18T18:20:14.974Z,18.73
2019-03-18T18:22:43.444Z,16.80
2019-03-18T18:25:15.695Z,16.03
2019-03-18T18:27:44.112Z,17.43
2019-03-18T18:30:18.607Z,17.03
2019-03-18T18:32:47.161Z,18.07
2019-03-18T18:35:15.937Z,21.17
2019-03-18T18:37:44.330Z,19.87
2019-03-18T18:40:26.376Z,16.40
2019-03-18T18:42:54.786Z,16.53
2019-03-18T18:45:23.189Z,17.70
2019-03-18T18:47:51.580Z,17.67
2019-03-18T18:50:19.990Z,16.87
2019-03-18T18:52:48.378Z,17.87
2019-03-18T18:55:18.351Z,18.73
2019-03-18T18:57:46.810Z,18.50
2019-03-18T19:00:19.941Z,16.70
2019-03-18T19:02:48.385Z,16.03
2019-03-18T19:05:17.431Z,24.07
2019-03-18T19:07:45.906Z,18.80
2019-03-18T19:10:16.428Z,18.10
2019-03-18T19:12:44.845Z,17.23
2019-03-18T19:15:19.091Z,17.23
2019-03-18T19:17:47.497Z,16.50
2019-03-18T19:20:15.897Z,18.63
2019-03-18T19:22:44.305Z,25.37
2019-03-18T19:25:16.812Z,17.20
2019-03-18T19:27:45.214Z,17.93
2019-03-18T19:30:18.238Z,16.43
2019-03-18T19:32:48.265Z,18.67
2019-03-18T19:35:18.306Z,15.77
2019-03-18T19:37:46.758Z,14.13
2019-03-18T19:40:16.597Z,13.73
2019-03-18T19:42:45.099Z,14.50
2019-03-18T19:45:14.371Z,14.33
2019-03-18T19:47:42.827Z,17.10
2019-03-18T19:50:22.898Z,15.43
2019-03-18T19:52:51.386Z,15.17
2019-03-18T19:55:19.876Z,15.73
2019-03-18T19:57:48.270Z,13.57
2019-03-18T20:00:27.642Z,18.50
2019-03-18T20:02:56.044Z,15.10
2019-03-18T20:05:24.443Z,17.13
2019-03-18T20:07:52.837Z,15.57
2019-03-18T20:10:22.009Z,16.20
2019-03-18T20:12:50.418Z,16.83
2019-03-18T20:15:19.733Z,16.90
2019-03-18T20:17:48.122Z,16.03
2019-03-18T20:20:21.182Z,15.70
2019-03-18T20:22:49.642Z,16.83
2019-03-18T20:25:18.040Z,17.93
2019-03-18T20:27:46.434Z,20.07
2019-03-18T20:30:18.706Z,20.93
2019-03-18T20:32:47.155Z,18.73
2019-03-18T20:35:26.300Z,17.60
2019-03-18T20:37:54.743Z,17.20
2019-03-18T20:40:24.863Z,15.83
2019-03-18T20:42:53.251Z,17.17
2019-03-18T20:45:26.169Z,16.60
2019-03-18T20:47:54.565Z,23.70
2019-03-18T20:50:23.904Z,31.13
2019-03-18T20:52:52.440Z,21.53
2019-03-18T20:55:20.883Z,26.57
2019-03-18T20:57:49.284Z,23.60
2019-03-18T21:00:19.631Z,23.43
2019-03-18T21:02:48.032Z,26.80
2019-03-18T21:05:16.487Z,22.57
2019-03-18T21:07:44.938Z,19.40
2019-03-18T21:10:17.778Z,21.40
2019-03-18T21:12:47.297Z,19.97
2019-03-18T21:15:16.742Z,20.73
2019-03-18T21:17:45.130Z,17.17
2019-03-18T21:20:21.680Z,18.53
2019-03-18T21:22:50.098Z,18.00
2019-03-18T21:25:18.498Z,17.20
2019-03-18T21:27:46.904Z,15.43
2019-03-18T21:30:17.707Z,18.07
2019-03-18T21:32:46.105Z,15.80
2019-03-18T21:35:14.542Z,15.77
2019-03-18T21:37:42.943Z,17.27
2019-03-18T21:40:21.728Z,15.80
2019-03-18T21:42:50.120Z,15.70
2019-03-18T21:45:19.696Z,16.07
2019-03-18T21:47:48.086Z,15.13
2019-03-18T21:50:16.875Z,16.57
2019-03-18T21:52:45.339Z,14.83
2019-03-18T21:55:14.293Z,18.40
2019-03-18T21:57:42.786Z,16.90
2019-03-18T22:00:16.577Z,15.47
2019-03-18T22:02:44.972Z,18.47
2019-03-18T22:05:13.369Z,18.47
2019-03-18T22:07:41.764Z,17.73
2019-03-18T22:10:12.544Z,19.17
2019-03-18T22:12:40.945Z,17.30
2019-03-18T22:15:11.474Z,19.33
2019-03-18T22:17:40.061Z,17.53
2019-03-18T22:20:11.859Z,17.70
2019-03-18T22:22:40.256Z,17.53
2019-03-18T22:25:10.312Z,19.20
2019-03-18T22:27:38.790Z,20.63
2019-03-18T22:30:16.276Z,16.63
2019-03-18T22:32:44.668Z,18.57
2019-03-18T22:35:13.306Z,17.80
2019-03-18T22:37:41.682Z,17.57
2019-03-18T22:40:11.886Z,19.90
2019-03-18T22:42:40.283Z,17.17
2019-03-18T22:45:10.898Z,17.13
2019-03-18T22:47:39.358Z,17.40
2019-03-18T22:50:09.336Z,17.37
2019-03-18T22:52:37.834Z,18.30
2019-03-18T22:55:09.034Z,18.07
2019-03-18T22:57:37.431Z,18.17
2019-03-18T23:00:10.752Z,19.43
2019-03-18T23:02:39.275Z,18.57
2019-03-18T23:05:08.111Z,18.97
2019-03-18T23:07:36.573Z,18.10
2019-03-18T23:10:06.828Z,19.07
2019-03-18T23:12:35.246Z,17.83
2019-03-18T23:15:05.483Z,18.00
2019-03-18T23:17:33.898Z,19.50
2019-03-18T23:20:02.282Z,19.63
2019-03-18T23:22:30.677Z,19.87
2019-03-18T23:25:07.087Z,18.03
2019-03-18T23:27:29.199Z,20.10
2019-03-18T23:29:57.661Z,21.47
2019-03-18T23:32:26.066Z,18.53
2019-03-18T23:34:54.467Z,21.20
2019-03-18T23:37:22.914Z,21.53
2019-03-18T23:39:51.319Z,18.00
2019-03-18T23:42:19.717Z,21.93
2019-03-18T23:44:48.113Z,20.30
2019-03-18T23:47:16.519Z,19.93
2019-03-18T23:49:47.419Z,22.17
2019-03-18T23:52:15.186Z,19.87
2019-03-18T23:54:43.580Z,20.03
2019-03-18T23:57:12.034Z,19.77
2019-03-18T23:59:40.441Z,19.60
